メインページ
METAR-TAF:

METAR-TAF

空港 :

ウシュアイア, アルゼンチン

ウシュアイア国際空港

緯度: 54-48S, 経度: 068-19W, 海抜: 16m

現時点の気象観測

気温 7°C
湿度 61%
気圧 982 hPa

METAR: SAWH 14060Q999 07/00 Q0982

時間: 03:26 (06:26 UTC)

予報

当レポートは1時間26分前の05:00(UTC)に作成
予報は14日の 06時(UTC)から 15日の 06時(UTC)まで有効
南西の風 20kt、最大35ktの突風を伴う
視程10km以上
高度3500ftの雲は散在している
14日の 09時(UTC)から 14日の 12時(UTC)まで徐々に
視程: 5000m
高度2000ftの千切れ雲あり
高度6000ftの千切れ雲あり

TAF: SAWH 140500Z 1406/1506 23020G35KT 9999 SCT035 TX14/1419Z TN05/1412Z BECMG 1409/1412 5000 RA BKN020 BKN060

4,000以上の空港の気象観測と天気予報(METAR報とTAF報)

利用可能な観測所は地図上に黄色い丸と赤い丸で示す。

丸の上にカーソルを重ねると観測所名を参照できる。

次にクリックすると気象観測と天気予報を参照できる。

マップの切り替え:黒色「×」印の緑ボタンをクリックして拡大、「-」印の緑ボタンをクリックして縮小、緑色の三角印をクリックして隣りの地図に切り替え


METAR-TAF: